Terminal Aerodrome Forecast
Issued by NWS Cleveland, OH

Home | Current Version | Previous Version | Text Only | Print | Product List | Glossary Off
Versions: 1 2 3 4 5 6 7 8 9 10 11 12 13 14 15 16 17 18 19 20

421
FTUS41 KCLE 082340
TAFERI
TAF
KERI 082340Z 0900/0924 25008KT 4SM -RASN BKN018 OVC028
     FM090300 26006KT 3SM -SN BR OVC008
      TEMPO 0906/0910 1SM -SN BR OVC006
     FM091000 26007KT 1SM -SN BR OVC005
     FM091500 24010KT 5SM -SHSN OVC012
     FM091800 25011KT P6SM OVC022=

USA.gov is the U.S. government's official web portal to all federal, state and local government web resources and services.